Time;durP1;ratioP1;P1;durP2;ratioP2;P2;SDS_P1;SDS_P2;PMS_P1;PMS_P2;Temp;Humidity;BMP_temperature;BMP_pressure;BME280_temperature;BME280_humidity;BME280_pressure;Samples;Min_cycle;Max_cycle;Signal;HPM_P1;HPM_P2
2023/01/17 00:00:33;;;;;;;;;;;;;;;;;;4920955;29;20338;-84
2023/01/17 00:02:59;;;;;;;;;;;;;;;;;;4927174;29;19970;-83
2023/01/17 00:10:57;;;;;;;;;;;;;;;;;;4924505;29;20014;-84
2023/01/17 00:13:22;;;;;;;;;;;;;;;;;;4921793;29;19929;-85
2023/01/17 00:15:48;;;;;;;;;;;;;;;;;;4921892;29;19958;-87
2023/01/17 00:18:13;;;;;;;;;;;;;;;;;;4921860;29;19922;-85
2023/01/17 00:26:28;;;;;;;;;;;;;;;;;;4845118;29;19927;-85
2023/01/17 01:35:40;;;;;;;;;;;;;;;;;;4920297;29;19947;-87
2023/01/17 01:38:06;;;;;;;;;;;;;;;;;;4919990;29;19919;-86
2023/01/17 01:40:31;;;;;;;;;;;;;;;;;;4903040;29;20335;-86
2023/01/17 01:42:58;;;;;;;;;;;;;;;;;;4919916;29;20435;-86
2023/01/17 01:45:31;;;;;;;;;;;;;;;;;;4902800;29;20010;-86
2023/01/17 01:48:01;;;;;;;;;;;;;;;;;;4919797;29;20264;-87
2023/01/17 01:50:27;;;;;;;;;;;;;;;;;;4919678;29;19919;-87
2023/01/17 01:52:54;;;;;;;;;;;;;;;;;;4919623;29;19970;-86
2023/01/17 01:55:23;;;;;;;;;;;;;;;;;;4919613;29;19927;-87
2023/01/17 01:57:49;;;;;;;;;;;;;;;;;;4919633;29;19919;-88
2023/01/17 02:00:21;;;;;;;;;;;;;;;;;;4902528;29;19950;-86
2023/01/17 02:02:48;;;;;;;;;;;;;;;;;;4919487;29;20383;-88
2023/01/17 02:05:14;;;;;;;;;;;;;;;;;;4919353;29;19983;-89
2023/01/17 02:07:42;;;;;;;;;;;;;;;;;;4919440;29;19923;-87
2023/01/17 02:10:08;;;;;;;;;;;;;;;;;;4919275;29;19950;-87
2023/01/17 02:12:34;;;;;;;;;;;;;;;;;;4919151;29;19920;-86
2023/01/17 02:14:59;;;;;;;;;;;;;;;;;;4919498;29;19947;-88
2023/01/17 02:17:40;;;;;;;;;;;;;;;;;;4919253;29;20256;-88
2023/01/17 02:20:22;;;;;;;;;;;;;;;;;;4902315;29;19926;-88
2023/01/17 02:22:57;;;;;;;;;;;;;;;;;;4919490;29;19923;-86
2023/01/17 02:25:45;;;;;;;;;;;;;;;;;;4901918;29;19927;-86
2023/01/17 02:28:11;;;;;;;;;;;;;;;;;;4918756;29;19954;-87
2023/01/17 02:30:39;;;;;;;;;;;;;;;;;;4919251;29;19955;-86
2023/01/17 02:33:08;;;;;;;;;;;;;;;;;;4901890;29;19919;-87
2023/01/17 02:35:39;;;;;;;;;;;;;;;;;;4918897;29;19919;-86
2023/01/17 02:38:13;;;;;;;;;;;;;;;;;;4901929;29;19998;-86
2023/01/17 02:40:51;;;;;;;;;;;;;;;;;;4901901;29;19970;-85
2023/01/17 02:43:17;;;;;;;;;;;;;;;;;;4901770;29;19919;-86
2023/01/17 02:45:44;;;;;;;;;;;;;;;;;;4918552;29;19919;-86
2023/01/17 02:48:11;;;;;;;;;;;;;;;;;;4918663;29;19975;-86
2023/01/17 02:50:54;;;;;;;;;;;;;;;;;;4918672;29;19925;-87
2023/01/17 02:53:23;;;;;;;;;;;;;;;;;;4918555;29;19919;-86
2023/01/17 02:56:03;;;;;;;;;;;;;;;;;;4918501;29;19923;-86
2023/01/17 02:58:49;;;;;;;;;;;;;;;;;;4918523;29;19930;-86
2023/01/17 03:01:18;;;;;;;;;;;;;;;;;;4918791;29;19919;-85
2023/01/17 03:03:48;;;;;;;;;;;;;;;;;;4918613;29;19919;-86
2023/01/17 03:06:16;;;;;;;;;;;;;;;;;;4918934;29;19919;-86
2023/01/17 03:08:43;;;;;;;;;;;;;;;;;;4918335;29;19926;-86
2023/01/17 03:11:09;;;;;;;;;;;;;;;;;;4918525;29;20279;-86
2023/01/17 03:13:35;;;;;;;;;;;;;;;;;;4901025;29;19923;-86
2023/01/17 03:16:03;;;;;;;;;;;;;;;;;;4918128;29;19919;-85
2023/01/17 03:18:28;;;;;;;;;;;;;;;;;;4901131;29;19923;-85
2023/01/17 03:20:53;;;;;;;;;;;;;;;;;;4918114;29;20386;-85
2023/01/17 03:23:19;;;;;;;;;;;;;;;;;;4917967;29;20367;-85
2023/01/17 03:25:44;;;;;;;;;;;;;;;;;;4900905;29;19926;-87
2023/01/17 03:28:10;;;;;;;;;;;;;;;;;;4918020;29;19915;-85
2023/01/17 03:30:35;;;;;;;;;;;;;;;;;;4900911;29;19927;-85
2023/01/17 03:33:00;;;;;;;;;;;;;;;;;;4917967;29;19919;-87
2023/01/17 03:35:27;;;;;;;;;;;;;;;;;;4900952;29;19915;-85
2023/01/17 03:37:52;;;;;;;;;;;;;;;;;;4917250;29;20398;-85
2023/01/17 03:40:18;;;;;;;;;;;;;;;;;;4917796;29;19919;-85
2023/01/17 03:42:43;;;;;;;;;;;;;;;;;;4917823;29;19919;-86
2023/01/17 03:45:09;;;;;;;;;;;;;;;;;;4917896;29;19923;-86
2023/01/17 03:47:35;;;;;;;;;;;;;;;;;;4917798;29;19915;-85
2023/01/17 03:50:00;;;;;;;;;;;;;;;;;;4917842;29;19947;-87
2023/01/17 03:52:25;;;;;;;;;;;;;;;;;;4917771;29;20066;-86
2023/01/17 03:54:51;;;;;;;;;;;;;;;;;;4922149;29;19915;-86
2023/01/17 03:57:16;;;;;;;;;;;;;;;;;;4929278;29;19919;-85
2023/01/17 03:59:41;;;;;;;;;;;;;;;;;;4932602;29;19915;-85
2023/01/17 04:02:07;;;;;;;;;;;;;;;;;;4930843;29;19959;-86
2023/01/17 04:04:32;;;;;;;;;;;;;;;;;;4921567;29;19926;-86
2023/01/17 04:06:58;;;;;;;;;;;;;;;;;;4918065;29;20313;-87
2023/01/17 04:09:23;;;;;;;;;;;;;;;;;;4918256;29;19920;-87
2023/01/17 04:11:49;;;;;;;;;;;;;;;;;;4918042;29;19919;-87
2023/01/17 04:14:15;;;;;;;;;;;;;;;;;;4900501;29;19929;-87
2023/01/17 04:16:41;;;;;;;;;;;;;;;;;;4900624;29;20022;-85
2023/01/17 04:19:08;;;;;;;;;;;;;;;;;;4900670;29;19916;-86
2023/01/17 04:21:33;;;;;;;;;;;;;;;;;;4917552;29;20339;-85
2023/01/17 04:23:59;;;;;;;;;;;;;;;;;;4917433;29;19923;-87
2023/01/17 04:26:24;;;;;;;;;;;;;;;;;;4900410;29;19926;-84
2023/01/17 04:28:50;;;;;;;;;;;;;;;;;;4917386;29;20272;-86
2023/01/17 04:31:15;;;;;;;;;;;;;;;;;;4917452;29;19923;-86
2023/01/17 04:33:41;;;;;;;;;;;;;;;;;;4917358;29;19919;-87
2023/01/17 04:36:06;;;;;;;;;;;;;;;;;;4917412;29;19923;-87
2023/01/17 04:38:32;;;;;;;;;;;;;;;;;;4917283;29;19919;-85
2023/01/17 04:40:57;;;;;;;;;;;;;;;;;;4917235;29;19919;-86
2023/01/17 04:43:22;;;;;;;;;;;;;;;;;;4900287;29;19919;-87
2023/01/17 04:45:53;;;;;;;;;;;;;;;;;;4917358;29;19923;-87
2023/01/17 04:48:18;;;;;;;;;;;;;;;;;;4917393;29;19923;-86
2023/01/17 04:50:44;;;;;;;;;;;;;;;;;;4920742;29;20018;-87
2023/01/17 04:53:09;;;;;;;;;;;;;;;;;;4904015;29;20295;-85
2023/01/17 04:55:34;;;;;;;;;;;;;;;;;;4903726;29;19926;-86
2023/01/17 04:58:00;;;;;;;;;;;;;;;;;;4920652;29;20299;-86
2023/01/17 05:00:25;;;;;;;;;;;;;;;;;;4921241;29;20006;-86
2023/01/17 05:02:51;;;;;;;;;;;;;;;;;;4903281;29;19919;-88
2023/01/17 05:05:16;;;;;;;;;;;;;;;;;;4920828;29;19922;-85
2023/01/17 05:07:41;;;;;;;;;;;;;;;;;;4920493;29;19919;-85
2023/01/17 05:10:07;;;;;;;;;;;;;;;;;;4920653;29;19950;-86
2023/01/17 05:12:33;;;;;;;;;;;;;;;;;;4920086;29;20375;-83
2023/01/17 05:14:58;;;;;;;;;;;;;;;;;;4903421;29;19946;-84
2023/01/17 05:17:24;;;;;;;;;;;;;;;;;;4920337;29;19926;-82
2023/01/17 05:19:49;;;;;;;;;;;;;;;;;;4903298;29;19927;-84
2023/01/17 05:22:15;;;;;;;;;;;;;;;;;;4920046;29;19919;-85
2023/01/17 05:24:41;;;;;;;;;;;;;;;;;;4920128;29;19955;-85
2023/01/17 05:27:06;;;;;;;;;;;;;;;;;;4903145;29;20063;-85
2023/01/17 05:29:32;;;;;;;;;;;;;;;;;;4903180;29;19966;-84
2023/01/17 05:31:57;;;;;;;;;;;;;;;;;;4920095;29;19923;-85
2023/01/17 05:34:23;;;;;;;;;;;;;;;;;;4903606;29;20389;-87
2023/01/17 05:36:48;;;;;;;;;;;;;;;;;;4920767;29;19923;-86
2023/01/17 05:39:13;;;;;;;;;;;;;;;;;;4920005;29;19951;-84
2023/01/17 05:41:39;;;;;;;;;;;;;;;;;;4919894;29;19915;-85
2023/01/17 05:44:04;;;;;;;;;;;;;;;;;;4920245;29;20393;-85
2023/01/17 05:46:30;;;;;;;;;;;;;;;;;;4926909;29;19919;-84
2023/01/17 05:48:55;;;;;;;;;;;;;;;;;;4913993;29;19958;-84
2023/01/17 05:51:21;;;;;;;;;;;;;;;;;;4935246;29;19919;-86
2023/01/17 05:53:46;;;;;;;;;;;;;;;;;;4915718;29;19926;-85
2023/01/17 05:56:11;;;;;;;;;;;;;;;;;;4905887;29;19923;-85
2023/01/17 05:58:38;;;;;;;;;;;;;;;;;;4904395;29;19923;-86
2023/01/17 06:01:04;;;;;;;;;;;;;;;;;;4919601;29;19919;-86
2023/01/17 06:03:29;;;;;;;;;;;;;;;;;;4919589;29;19919;-88
2023/01/17 06:05:55;;;;;;;;;;;;;;;;;;4903578;29;19983;-86
2023/01/17 06:08:22;;;;;;;;;;;;;;;;;;4919503;29;19923;-87
2023/01/17 06:10:47;;;;;;;;;;;;;;;;;;4919620;29;20314;-86
2023/01/17 06:13:15;;;;;;;;;;;;;;;;;;4902401;29;19923;-86
2023/01/17 06:15:41;;;;;;;;;;;;;;;;;;4902570;29;20353;-85
2023/01/17 06:18:07;;;;;;;;;;;;;;;;;;4902187;29;19954;-88
2023/01/17 06:20:33;;;;;;;;;;;;;;;;;;4901041;29;20343;-88
2023/01/17 06:23:00;;;;;;;;;;;;;;;;;;4900224;29;19924;-87
2023/01/17 06:25:25;;;;;;;;;;;;;;;;;;4884232;29;19947;-87
2023/01/17 06:27:53;;;;;;;;;;;;;;;;;;4882385;29;19920;-88
2023/01/17 06:30:19;;;;;;;;;;;;;;;;;;4898205;29;19933;-87
2023/01/17 06:32:50;;;;;;;;;;;;;;;;;;4918831;29;19919;-87
2023/01/17 06:35:15;;;;;;;;;;;;;;;;;;4918627;29;19923;-86
2023/01/17 06:37:41;;;;;;;;;;;;;;;;;;4918776;29;19925;-88
2023/01/17 06:40:07;;;;;;;;;;;;;;;;;;4918412;29;20276;-88
2023/01/17 06:42:32;;;;;;;;;;;;;;;;;;4901346;29;19989;-88
2023/01/17 06:44:57;;;;;;;;;;;;;;;;;;4918392;29;19924;-87
2023/01/17 06:47:23;;;;;;;;;;;;;;;;;;4918758;29;19967;-86
2023/01/17 06:49:48;;;;;;;;;;;;;;;;;;4901476;29;19927;-86
2023/01/17 06:52:14;;;;;;;;;;;;;;;;;;4901323;29;19966;-89
2023/01/17 06:54:39;;;;;;;;;;;;;;;;;;4918572;29;19950;-89
2023/01/17 06:57:04;;;;;;;;;;;;;;;;;;4918456;29;19961;-84
2023/01/17 06:59:30;;;;;;;;;;;;;;;;;;4918237;29;19923;-85
2023/01/17 07:01:55;;;;;;;;;;;;;;;;;;4901555;29;19926;-85
2023/01/17 07:04:20;;;;;;;;;;;;;;;;;;4900613;29;19955;-84
2023/01/17 07:06:46;;;;;;;;;;;;;;;;;;4918644;29;19974;-85
2023/01/17 07:09:11;;;;;;;;;;;;;;;;;;4901270;29;19930;-85
2023/01/17 07:11:36;;;;;;;;;;;;;;;;;;4901083;29;20307;-84
2023/01/17 07:14:02;;;;;;;;;;;;;;;;;;4917486;29;19951;-86
2023/01/17 07:16:27;;;;;;;;;;;;;;;;;;4918050;29;19969;-85
2023/01/17 07:18:53;;;;;;;;;;;;;;;;;;4899270;29;19982;-87
2023/01/17 07:21:19;;;;;;;;;;;;;;;;;;4900911;29;19974;-86
2023/01/17 07:23:44;;;;;;;;;;;;;;;;;;4900841;29;19927;-85
2023/01/17 07:26:09;;;;;;;;;;;;;;;;;;4901027;29;19925;-85
2023/01/17 07:28:35;;;;;;;;;;;;;;;;;;4917834;29;19930;-86
2023/01/17 07:31:07;;;;;;;;;;;;;;;;;;4917475;29;19970;-86
2023/01/17 07:33:32;;;;;;;;;;;;;;;;;;4900326;29;19919;-86
2023/01/17 07:35:58;;;;;;;;;;;;;;;;;;4900241;29;19919;-85
2023/01/17 07:38:23;;;;;;;;;;;;;;;;;;4917250;29;20367;-85
2023/01/17 07:40:49;;;;;;;;;;;;;;;;;;4917330;29;20334;-85
2023/01/17 07:43:15;;;;;;;;;;;;;;;;;;4917405;29;19926;-85
2023/01/17 07:45:44;;;;;;;;;;;;;;;;;;4918437;29;19974;-85
2023/01/17 07:48:10;;;;;;;;;;;;;;;;;;4917982;29;19923;-87
2023/01/17 07:50:35;;;;;;;;;;;;;;;;;;4917880;29;20001;-87
2023/01/17 07:53:01;;;;;;;;;;;;;;;;;;4917689;29;20387;-87
2023/01/17 07:55:27;;;;;;;;;;;;;;;;;;4895007;29;19923;-88
2023/01/17 07:57:52;;;;;;;;;;;;;;;;;;4898654;29;19927;-87
2023/01/17 08:00:18;;;;;;;;;;;;;;;;;;4900625;29;20371;-87
2023/01/17 08:02:43;;;;;;;;;;;;;;;;;;4917567;29;19942;-86
2023/01/17 08:05:09;;;;;;;;;;;;;;;;;;4917410;29;19982;-87
2023/01/17 08:07:34;;;;;;;;;;;;;;;;;;4917550;29;19973;-87
2023/01/17 08:10:00;;;;;;;;;;;;;;;;;;4917239;29;19923;-88
2023/01/17 08:12:25;;;;;;;;;;;;;;;;;;4917210;29;20030;-87
2023/01/17 08:14:51;;;;;;;;;;;;;;;;;;4917213;29;19962;-88
2023/01/17 08:17:17;;;;;;;;;;;;;;;;;;4917553;29;19926;-89
2023/01/17 08:19:43;;;;;;;;;;;;;;;;;;4900414;29;19924;-89
2023/01/17 08:22:10;;;;;;;;;;;;;;;;;;4917226;29;19923;-87
2023/01/17 08:24:36;;;;;;;;;;;;;;;;;;4919608;29;19934;-87
2023/01/17 08:27:01;;;;;;;;;;;;;;;;;;4904301;29;19919;-87
2023/01/17 08:29:28;;;;;;;;;;;;;;;;;;4921083;29;19923;-88
2023/01/17 08:31:53;;;;;;;;;;;;;;;;;;4921155;29;19958;-87
2023/01/17 08:34:18;;;;;;;;;;;;;;;;;;4920760;29;19979;-88
2023/01/17 08:36:46;;;;;;;;;;;;;;;;;;4903751;29;19919;-87
2023/01/17 08:39:12;;;;;;;;;;;;;;;;;;4920858;29;20331;-88
2023/01/17 08:41:37;;;;;;;;;;;;;;;;;;4920762;29;19919;-87
2023/01/17 08:44:03;;;;;;;;;;;;;;;;;;4920830;29;20408;-87
2023/01/17 08:46:28;;;;;;;;;;;;;;;;;;4920654;29;19927;-86
2023/01/17 08:48:55;;;;;;;;;;;;;;;;;;4920667;29;19926;-87
2023/01/17 08:51:21;;;;;;;;;;;;;;;;;;4903735;29;19923;-87
2023/01/17 08:53:47;;;;;;;;;;;;;;;;;;4920693;29;19974;-87
2023/01/17 08:56:13;;;;;;;;;;;;;;;;;;4903623;29;19931;-88
2023/01/17 08:58:40;;;;;;;;;;;;;;;;;;4903664;29;20471;-87
2023/01/17 09:01:05;;;;;;;;;;;;;;;;;;4903564;29;19948;-87
2023/01/17 09:03:31;;;;;;;;;;;;;;;;;;4903441;29;19934;-87
2023/01/17 09:06:06;;;;;;;;;;;;;;;;;;4903329;29;19924;-87
2023/01/17 09:08:32;;;;;;;;;;;;;;;;;;4903403;29;20387;-85
2023/01/17 09:10:57;;;;;;;;;;;;;;;;;;4932374;29;19930;-86
2023/01/17 09:13:22;;;;;;;;;;;;;;;;;;4938997;29;20009;-84
2023/01/17 09:15:48;;;;;;;;;;;;;;;;;;4939080;29;19926;-86
2023/01/17 09:18:13;;;;;;;;;;;;;;;;;;4921935;29;19970;-87
2023/01/17 09:20:39;;;;;;;;;;;;;;;;;;4921826;29;19927;-87
2023/01/17 09:23:04;;;;;;;;;;;;;;;;;;4922124;29;20398;-87
2023/01/17 09:25:30;;;;;;;;;;;;;;;;;;4921778;29;19966;-86
2023/01/17 09:27:55;;;;;;;;;;;;;;;;;;4939296;29;19918;-85
2023/01/17 09:30:21;;;;;;;;;;;;;;;;;;4938727;29;20021;-86
2023/01/17 09:32:53;;;;;;;;;;;;;;;;;;4922378;29;19919;-85
2023/01/17 09:35:18;;;;;;;;;;;;;;;;;;4937828;29;19923;-84
2023/01/17 09:37:43;;;;;;;;;;;;;;;;;;4946452;29;19942;-86
2023/01/17 09:40:13;;;;;;;;;;;;;;;;;;4942929;29;20330;-86
2023/01/17 09:42:39;;;;;;;;;;;;;;;;;;4930543;29;19965;-85
2023/01/17 09:45:08;;;;;;;;;;;;;;;;;;4949038;29;19989;-86
2023/01/17 09:47:41;;;;;;;;;;;;;;;;;;4928586;29;19981;-87
2023/01/17 09:50:15;;;;;;;;;;;;;;;;;;4945172;29;20294;-86
2023/01/17 09:52:40;;;;;;;;;;;;;;;;;;4939367;29;19943;-87
2023/01/17 09:55:06;;;;;;;;;;;;;;;;;;4938494;29;19960;-86
2023/01/17 09:57:37;;;;;;;;;;;;;;;;;;4921543;29;20383;-85
2023/01/17 10:00:11;;;;;;;;;;;;;;;;;;4921028;29;20305;-88
2023/01/17 10:02:42;;;;;;;;;;;;;;;;;;4938379;29;19923;-87
2023/01/17 10:05:16;;;;;;;;;;;;;;;;;;4938361;29;20009;-87
2023/01/17 10:07:52;;;;;;;;;;;;;;;;;;4938398;29;19925;-86
2023/01/17 10:10:20;;;;;;;;;;;;;;;;;;4937661;29;19923;-88
2023/01/17 10:12:55;;;;;;;;;;;;;;;;;;4938266;29;19926;-87
2023/01/17 10:15:31;;;;;;;;;;;;;;;;;;4937794;29;19978;-87
2023/01/17 10:18:19;;;;;;;;;;;;;;;;;;4938225;29;19967;-87
2023/01/17 10:20:51;;;;;;;;;;;;;;;;;;4937760;29;20410;-86
2023/01/17 10:23:17;;;;;;;;;;;;;;;;;;4938038;29;19919;-86
2023/01/17 10:25:42;;;;;;;;;;;;;;;;;;4938342;29;19970;-85
2023/01/17 10:28:08;;;;;;;;;;;;;;;;;;4920755;29;19915;-88
2023/01/17 10:30:37;;;;;;;;;;;;;;;;;;4937467;29;19923;-87
2023/01/17 10:33:10;;;;;;;;;;;;;;;;;;4920863;29;20025;-87
2023/01/17 10:35:37;;;;;;;;;;;;;;;;;;4937631;29;20304;-85
2023/01/17 10:38:06;;;;;;;;;;;;;;;;;;4937867;29;20334;-87
2023/01/17 10:40:49;;;;;;;;;;;;;;;;;;4920504;29;20078;-86
2023/01/17 10:43:21;;;;;;;;;;;;;;;;;;4937940;29;19918;-87
2023/01/17 10:45:53;;;;;;;;;;;;;;;;;;4937502;29;19973;-87
2023/01/17 10:48:19;;;;;;;;;;;;;;;;;;4937505;29;19929;-87
2023/01/17 10:50:47;;;;;;;;;;;;;;;;;;4937541;29;19919;-85
2023/01/17 10:53:31;;;;;;;;;;;;;;;;;;4937159;29;19918;-86
2023/01/17 10:55:57;;;;;;;;;;;;;;;;;;4920170;29;19969;-84
2023/01/17 10:58:24;;;;;;;;;;;;;;;;;;4920033;29;20335;-84
2023/01/17 11:00:53;;;;;;;;;;;;;;;;;;4937301;29;19927;-85
2023/01/17 11:03:19;;;;;;;;;;;;;;;;;;4937348;29;20306;-85
2023/01/17 11:05:45;;;;;;;;;;;;;;;;;;4937085;29;20039;-85
2023/01/17 11:08:14;;;;;;;;;;;;;;;;;;4920355;29;20371;-84
2023/01/17 11:10:48;;;;;;;;;;;;;;;;;;4937709;29;19923;-85
2023/01/17 11:13:19;;;;;;;;;;;;;;;;;;4937381;29;19922;-85
2023/01/17 11:15:47;;;;;;;;;;;;;;;;;;4937153;29;20375;-85
2023/01/17 11:18:14;;;;;;;;;;;;;;;;;;4937333;29;20378;-85
2023/01/17 11:20:41;;;;;;;;;;;;;;;;;;4937238;29;19918;-85
2023/01/17 11:23:07;;;;;;;;;;;;;;;;;;4937161;29;20342;-85
2023/01/17 11:25:33;;;;;;;;;;;;;;;;;;4911669;29;20009;-86
2023/01/17 11:28:00;;;;;;;;;;;;;;;;;;4918087;29;19919;-85
2023/01/17 11:30:28;;;;;;;;;;;;;;;;;;4907067;29;19926;-86
2023/01/17 11:32:57;;;;;;;;;;;;;;;;;;4936791;29;19923;-87
2023/01/17 11:35:43;;;;;;;;;;;;;;;;;;4936509;29;20005;-85
2023/01/17 11:38:19;;;;;;;;;;;;;;;;;;4919937;29;20402;-86
2023/01/17 11:40:45;;;;;;;;;;;;;;;;;;4919326;29;20049;-85
2023/01/17 11:43:11;;;;;;;;;;;;;;;;;;4936579;29;19927;-86
2023/01/17 11:45:40;;;;;;;;;;;;;;;;;;4919160;29;19923;-85
2023/01/17 11:48:11;;;;;;;;;;;;;;;;;;4936925;29;19946;-84
2023/01/17 11:50:38;;;;;;;;;;;;;;;;;;4906073;29;19927;-86
2023/01/17 11:53:04;;;;;;;;;;;;;;;;;;4901173;29;19923;-86
2023/01/17 11:55:29;;;;;;;;;;;;;;;;;;4917785;29;19927;-86
2023/01/17 11:57:55;;;;;;;;;;;;;;;;;;4917410;29;19979;-85
2023/01/17 12:00:24;;;;;;;;;;;;;;;;;;4900500;29;19974;-85
2023/01/17 12:02:53;;;;;;;;;;;;;;;;;;4917624;29;19923;-86
2023/01/17 12:05:24;;;;;;;;;;;;;;;;;;4917570;29;19926;-84
2023/01/17 12:07:58;;;;;;;;;;;;;;;;;;4917617;29;20299;-84
2023/01/17 12:10:31;;;;;;;;;;;;;;;;;;4917461;29;20002;-83
2023/01/17 12:18:53;;;;;;;;;;;;;;;;;;4917703;29;19926;-85
2023/01/17 12:21:25;;;;;;;;;;;;;;;;;;4900732;29;20367;-83
2023/01/17 12:23:50;;;;;;;;;;;;;;;;;;4918024;29;20039;-83
2023/01/17 12:26:19;;;;;;;;;;;;;;;;;;4900671;29;20010;-85
2023/01/17 12:29:00;;;;;;;;;;;;;;;;;;4917558;29;20010;-83
2023/01/17 12:31:31;;;;;;;;;;;;;;;;;;4900659;29;20480;-84
2023/01/17 12:34:02;;;;;;;;;;;;;;;;;;4917632;29;19919;-84
2023/01/17 12:36:36;;;;;;;;;;;;;;;;;;4917492;29;20290;-86
2023/01/17 12:39:10;;;;;;;;;;;;;;;;;;4900481;29;19920;-83
2023/01/17 12:41:36;;;;;;;;;;;;;;;;;;4917727;29;19938;-83
2023/01/17 12:44:01;;;;;;;;;;;;;;;;;;4900460;29;20002;-82
2023/01/17 12:46:39;;;;;;;;;;;;;;;;;;4917461;29;19966;-84
2023/01/17 12:49:23;;;;;;;;;;;;;;;;;;4917576;29;19942;-83
2023/01/17 12:51:53;;;;;;;;;;;;;;;;;;4900909;29;20021;-83
2023/01/17 12:54:23;;;;;;;;;;;;;;;;;;4917643;29;19923;-83
2023/01/17 12:56:51;;;;;;;;;;;;;;;;;;4899199;29;19927;-84
2023/01/17 12:59:23;;;;;;;;;;;;;;;;;;4917144;29;20422;-84
2023/01/17 13:01:56;;;;;;;;;;;;;;;;;;4917167;29;19919;-84
2023/01/17 13:04:33;;;;;;;;;;;;;;;;;;4917723;29;19954;-83
2023/01/17 13:06:59;;;;;;;;;;;;;;;;;;4900229;29;20470;-84
2023/01/17 13:09:27;;;;;;;;;;;;;;;;;;4901170;29;19923;-84
2023/01/17 13:11:59;;;;;;;;;;;;;;;;;;4920218;29;19945;-83
2023/01/17 13:14:26;;;;;;;;;;;;;;;;;;4926208;29;19930;-85
2023/01/17 13:16:57;;;;;;;;;;;;;;;;;;4928870;29;19919;-84
2023/01/17 13:19:41;;;;;;;;;;;;;;;;;;4924421;29;19933;-86
2023/01/17 13:22:08;;;;;;;;;;;;;;;;;;4903666;29;20315;-84
2023/01/17 13:24:40;;;;;;;;;;;;;;;;;;4902042;29;19919;-87
2023/01/17 13:27:12;;;;;;;;;;;;;;;;;;4920554;29;19919;-86
2023/01/17 13:29:47;;;;;;;;;;;;;;;;;;4920627;29;19959;-86
2023/01/17 13:32:12;;;;;;;;;;;;;;;;;;4903188;29;19925;-88
2023/01/17 13:34:59;;;;;;;;;;;;;;;;;;4920425;29;19919;-86
2023/01/17 13:37:27;;;;;;;;;;;;;;;;;;4920238;29;19919;-86
2023/01/17 13:39:59;;;;;;;;;;;;;;;;;;4902965;29;20283;-86
2023/01/17 13:42:24;;;;;;;;;;;;;;;;;;4919877;29;20014;-87
2023/01/17 13:44:50;;;;;;;;;;;;;;;;;;4920130;29;19919;-85
2023/01/17 13:47:15;;;;;;;;;;;;;;;;;;4903436;29;19919;-88
2023/01/17 13:49:48;;;;;;;;;;;;;;;;;;4919968;29;19947;-88
2023/01/17 13:52:19;;;;;;;;;;;;;;;;;;4903782;29;19923;-87
2023/01/17 13:54:52;;;;;;;;;;;;;;;;;;4884018;29;19951;-87
2023/01/17 13:57:31;;;;;;;;;;;;;;;;;;4900847;29;19991;-89
2023/01/17 14:00:15;;;;;;;;;;;;;;;;;;4901411;29;19920;-87
2023/01/17 14:02:41;;;;;;;;;;;;;;;;;;4899732;29;20029;-87
2023/01/17 14:05:06;;;;;;;;;;;;;;;;;;4883844;29;19919;-88
2023/01/17 14:07:33;;;;;;;;;;;;;;;;;;4883767;29;19919;-85
2023/01/17 14:09:59;;;;;;;;;;;;;;;;;;4901353;29;19934;-84
2023/01/17 14:12:26;;;;;;;;;;;;;;;;;;4883679;29;20018;-87
2023/01/17 14:14:54;;;;;;;;;;;;;;;;;;4900459;29;19930;-86
2023/01/17 14:17:21;;;;;;;;;;;;;;;;;;4900688;29;19931;-89
2023/01/17 14:20:02;;;;;;;;;;;;;;;;;;4900949;29;19919;-86
2023/01/17 14:22:30;;;;;;;;;;;;;;;;;;4900478;29;19967;-84
2023/01/17 14:25:08;;;;;;;;;;;;;;;;;;4900730;29;19948;-88
2023/01/17 14:27:35;;;;;;;;;;;;;;;;;;4900876;29;20372;-86
2023/01/17 14:30:06;;;;;;;;;;;;;;;;;;4900308;29;19919;-86
2023/01/17 14:32:34;;;;;;;;;;;;;;;;;;4883370;29;19954;-85
2023/01/17 14:34:59;;;;;;;;;;;;;;;;;;4900627;29;19943;-85
2023/01/17 14:37:37;;;;;;;;;;;;;;;;;;4899441;29;19919;-84
2023/01/17 14:40:13;;;;;;;;;;;;;;;;;;4900218;29;20018;-85
2023/01/17 14:42:38;;;;;;;;;;;;;;;;;;4883572;29;19963;-88
2023/01/17 14:45:08;;;;;;;;;;;;;;;;;;4900424;29;19927;-84
2023/01/17 14:47:35;;;;;;;;;;;;;;;;;;4900041;29;20378;-89
2023/01/17 14:50:10;;;;;;;;;;;;;;;;;;4899860;29;20434;-85
2023/01/17 14:52:36;;;;;;;;;;;;;;;;;;4883156;29;19927;-86
2023/01/17 14:55:13;;;;;;;;;;;;;;;;;;4899934;29;19920;-85
2023/01/17 14:57:38;;;;;;;;;;;;;;;;;;4900604;29;20010;-86
2023/01/17 15:00:08;;;;;;;;;;;;;;;;;;4882888;29;19915;-84
2023/01/17 15:02:33;;;;;;;;;;;;;;;;;;4899862;29;19919;-82
2023/01/17 15:04:59;;;;;;;;;;;;;;;;;;4899802;29;20268;-84
2023/01/17 15:07:26;;;;;;;;;;;;;;;;;;4898374;29;19920;-81
2023/01/17 15:09:51;;;;;;;;;;;;;;;;;;4899590;29;20047;-82
2023/01/17 15:12:18;;;;;;;;;;;;;;;;;;4899487;29;20382;-84
2023/01/17 15:14:44;;;;;;;;;;;;;;;;;;4882810;29;20272;-84
2023/01/17 15:17:16;;;;;;;;;;;;;;;;;;4882355;29;19924;-83
2023/01/17 15:19:42;;;;;;;;;;;;;;;;;;4899750;29;19926;-84
2023/01/17 15:22:08;;;;;;;;;;;;;;;;;;4899367;29;19923;-84
2023/01/17 15:24:38;;;;;;;;;;;;;;;;;;4882373;29;20344;-83
2023/01/17 15:27:05;;;;;;;;;;;;;;;;;;4899322;29;20403;-84
2023/01/17 15:29:31;;;;;;;;;;;;;;;;;;4899431;29;19919;-84
2023/01/17 15:32:01;;;;;;;;;;;;;;;;;;4899424;29;19919;-87
2023/01/17 15:34:29;;;;;;;;;;;;;;;;;;4897087;29;20010;-84
2023/01/17 15:36:56;;;;;;;;;;;;;;;;;;4897872;29;19919;-84
2023/01/17 15:39:23;;;;;;;;;;;;;;;;;;4899223;29;19920;-83
2023/01/17 15:41:53;;;;;;;;;;;;;;;;;;4899248;29;19920;-83
2023/01/17 15:44:42;;;;;;;;;;;;;;;;;;4899421;29;20084;-84
2023/01/17 15:47:26;;;;;;;;;;;;;;;;;;4877584;29;19927;-84
2023/01/17 15:49:52;;;;;;;;;;;;;;;;;;4899660;29;19927;-83
2023/01/17 15:52:17;;;;;;;;;;;;;;;;;;4899191;29;19920;-84
2023/01/17 15:54:50;;;;;;;;;;;;;;;;;;4899003;29;20371;-86
2023/01/17 15:57:21;;;;;;;;;;;;;;;;;;4898951;29;19942;-84
2023/01/17 15:59:47;;;;;;;;;;;;;;;;;;4898858;29;19987;-84
2023/01/17 16:02:32;;;;;;;;;;;;;;;;;;4898815;29;19920;-83
2023/01/17 16:04:58;;;;;;;;;;;;;;;;;;4898919;29;20011;-84
2023/01/17 16:07:32;;;;;;;;;;;;;;;;;;4898964;29;19924;-84
2023/01/17 16:10:06;;;;;;;;;;;;;;;;;;4898884;29;19920;-84
2023/01/17 16:12:31;;;;;;;;;;;;;;;;;;4898892;29;19920;-84
2023/01/17 16:14:56;;;;;;;;;;;;;;;;;;4898664;29;19919;-84
2023/01/17 16:17:22;;;;;;;;;;;;;;;;;;4898833;29;20005;-83
2023/01/17 16:19:47;;;;;;;;;;;;;;;;;;4898805;29;19920;-84
2023/01/17 16:22:13;;;;;;;;;;;;;;;;;;4899117;29;20006;-83
2023/01/17 16:24:39;;;;;;;;;;;;;;;;;;4897315;29;20223;-85
2023/01/17 16:27:05;;;;;;;;;;;;;;;;;;4898595;29;19920;-84
2023/01/17 16:29:30;;;;;;;;;;;;;;;;;;4898674;29;19920;-83
2023/01/17 16:31:55;;;;;;;;;;;;;;;;;;4898694;29;19919;-86
2023/01/17 16:34:22;;;;;;;;;;;;;;;;;;4898588;29;19974;-85
2023/01/17 16:36:52;;;;;;;;;;;;;;;;;;4898923;29;19919;-84
2023/01/17 16:39:17;;;;;;;;;;;;;;;;;;4898971;29;19974;-89
2023/01/17 16:41:43;;;;;;;;;;;;;;;;;;4898595;29;19920;-87
2023/01/17 16:44:08;;;;;;;;;;;;;;;;;;4898403;29;20287;-86
2023/01/17 16:46:37;;;;;;;;;;;;;;;;;;4901951;29;19935;-88
2023/01/17 16:49:02;;;;;;;;;;;;;;;;;;4902103;29;19927;-85
2023/01/17 16:51:28;;;;;;;;;;;;;;;;;;4902552;29;19919;-87
2023/01/17 16:53:53;;;;;;;;;;;;;;;;;;4902025;29;20293;-83
2023/01/17 16:56:19;;;;;;;;;;;;;;;;;;4902113;29;20370;-84
2023/01/17 16:58:44;;;;;;;;;;;;;;;;;;4904758;29;19927;-86
2023/01/17 17:01:14;;;;;;;;;;;;;;;;;;4907550;29;19920;-84
2023/01/17 17:03:40;;;;;;;;;;;;;;;;;;4911220;29;19959;-85
2023/01/17 17:06:06;;;;;;;;;;;;;;;;;;4912363;29;19919;-86
2023/01/17 17:08:32;;;;;;;;;;;;;;;;;;4914741;29;19952;-88
2023/01/17 17:11:13;;;;;;;;;;;;;;;;;;4931034;29;19922;-88
2023/01/17 17:13:39;;;;;;;;;;;;;;;;;;4912662;29;19923;-88
2023/01/17 17:16:08;;;;;;;;;;;;;;;;;;4920023;29;19931;-88
2023/01/17 17:18:35;;;;;;;;;;;;;;;;;;4892538;29;19930;-88
2023/01/17 17:21:01;;;;;;;;;;;;;;;;;;4908080;29;20294;-88
2023/01/17 17:23:26;;;;;;;;;;;;;;;;;;4917473;29;20376;-88
2023/01/17 17:25:55;;;;;;;;;;;;;;;;;;4901437;29;19920;-88
2023/01/17 17:28:20;;;;;;;;;;;;;;;;;;4884589;29;19915;-89
2023/01/17 17:30:46;;;;;;;;;;;;;;;;;;4901308;29;19976;-90
2023/01/17 17:33:12;;;;;;;;;;;;;;;;;;4901088;29;19915;-88
2023/01/17 17:35:37;;;;;;;;;;;;;;;;;;4901287;29;19920;-88
2023/01/17 17:38:05;;;;;;;;;;;;;;;;;;4900719;29;20348;-87
2023/01/17 17:40:33;;;;;;;;;;;;;;;;;;4901232;29;19922;-87
2023/01/17 17:42:58;;;;;;;;;;;;;;;;;;4884215;29;20058;-89
2023/01/17 17:45:24;;;;;;;;;;;;;;;;;;4901094;29;20006;-90
2023/01/17 17:47:49;;;;;;;;;;;;;;;;;;4900743;29;20287;-89
2023/01/17 17:50:15;;;;;;;;;;;;;;;;;;4884371;29;20375;-87
2023/01/17 17:52:43;;;;;;;;;;;;;;;;;;4883697;29;19927;-90
2023/01/17 17:55:09;;;;;;;;;;;;;;;;;;4915829;29;20009;-89
2023/01/17 17:57:35;;;;;;;;;;;;;;;;;;4918983;29;19919;-89
2023/01/17 18:00:01;;;;;;;;;;;;;;;;;;4919801;29;19919;-90
2023/01/17 18:02:27;;;;;;;;;;;;;;;;;;4902591;29;19919;-86
2023/01/17 18:04:52;;;;;;;;;;;;;;;;;;4919608;29;20296;-90
2023/01/17 18:07:18;;;;;;;;;;;;;;;;;;4919204;29;19926;-87
2023/01/17 18:09:44;;;;;;;;;;;;;;;;;;4919468;29;19942;-85
2023/01/17 18:12:09;;;;;;;;;;;;;;;;;;4902810;29;19923;-87
2023/01/17 18:14:35;;;;;;;;;;;;;;;;;;4919725;29;20025;-88